createdAt,value
2023-04-05T00:02:18.967Z,96551.44
2023-04-05T00:04:54.511Z,96548.97
2023-04-05T00:07:24.766Z,96543.09
2023-04-05T00:09:55.108Z,96539.75
2023-04-05T00:12:23.956Z,96536.56
2023-04-05T00:14:52.632Z,96535.78
2023-04-05T00:17:21.097Z,96532.53
2023-04-05T00:19:58.239Z,96533.31
2023-04-05T00:22:27.010Z,96545.03
2023-04-05T00:24:57.136Z,96537.53
2023-04-05T00:27:25.822Z,96537.59
2023-04-05T00:29:57.645Z,96538.56
2023-04-05T00:32:26.203Z,96538.63
2023-04-05T00:34:54.740Z,96532.78
2023-04-05T00:37:23.680Z,96536.94
2023-04-05T00:39:54.053Z,96537.00
2023-04-05T00:42:24.079Z,96532.91
2023-04-05T00:44:52.812Z,96528.75
2023-04-05T00:47:23.451Z,96529.53
2023-04-05T00:49:52.614Z,96524.56
2023-04-05T00:52:23.686Z,96535.44
2023-04-05T00:54:53.483Z,96536.25
2023-04-05T00:57:28.222Z,96538.84
2023-04-05T01:00:02.152Z,96540.50
2023-04-05T01:02:34.624Z,96532.31
2023-04-05T01:05:06.344Z,96534.03
2023-04-05T01:07:42.596Z,96529.13
2023-04-05T01:10:12.883Z,96530.75
2023-04-05T01:12:43.243Z,96533.28
2023-04-05T01:15:14.225Z,96535.19
2023-04-05T01:17:45.392Z,96531.97
2023-04-05T01:20:14.409Z,96532.91
2023-04-05T01:23:15.025Z,96528.72
2023-04-05T01:26:19.578Z,96527.13
2023-04-05T01:29:29.989Z,96527.13
2023-04-05T01:32:04.280Z,96523.81
2023-04-05T01:34:42.753Z,96521.34
2023-04-05T01:37:14.464Z,96523.88
2023-04-05T01:39:44.256Z,96520.56
2023-04-05T01:42:12.999Z,96521.50
2023-04-05T01:44:45.724Z,96524.88
2023-04-05T01:47:15.687Z,96524.19
2023-04-05T01:49:44.817Z,96526.78
2023-04-05T01:52:13.432Z,96523.53
2023-04-05T01:54:42.353Z,96521.88
2023-04-05T01:57:10.766Z,96523.53
2023-04-05T01:59:39.871Z,96531.44
2023-04-05T02:02:09.146Z,96525.63
2023-04-05T02:04:39.382Z,96509.91
2023-04-05T02:07:08.227Z,96520.63
2023-04-05T02:09:37.324Z,96518.97
2023-04-05T02:12:06.600Z,96519.91
2023-04-05T02:14:35.728Z,96522.38
2023-04-05T02:17:04.443Z,96519.91
2023-04-05T02:19:37.492Z,96519.09
2023-04-05T02:22:07.660Z,96523.44
2023-04-05T02:24:36.514Z,96518.56
2023-04-05T02:27:05.619Z,96520.25
2023-04-05T02:29:37.101Z,96516.13
2023-04-05T02:32:06.401Z,96510.22
2023-04-05T02:34:37.220Z,96513.56
2023-04-05T02:37:08.261Z,96526.06
2023-04-05T02:39:37.031Z,96508.53
2023-04-05T02:42:06.314Z,96506.88
2023-04-05T02:44:35.189Z,96501.88
2023-04-05T02:47:03.986Z,96503.63
2023-04-05T02:49:32.672Z,96501.22
2023-04-05T02:52:01.362Z,96504.63
2023-04-05T02:54:31.666Z,96510.50
2023-04-05T02:57:02.520Z,96507.31
2023-04-05T02:59:31.172Z,96506.59
2023-04-05T03:01:59.775Z,96507.50
2023-04-05T03:04:28.813Z,96511.69
2023-04-05T03:06:57.523Z,96510.91
2023-04-05T03:09:27.449Z,96505.88
2023-04-05T03:11:57.975Z,96500.09
2023-04-05T03:14:26.555Z,96504.25
2023-04-05T03:16:55.293Z,96510.06
2023-04-05T03:19:24.582Z,96502.63
2023-04-05T03:21:53.683Z,96502.75
2023-04-05T03:24:22.258Z,96502.75
2023-04-05T03:26:51.389Z,96503.63
2023-04-05T03:29:21.803Z,96499.56
2023-04-05T03:31:51.789Z,96503.78
2023-04-05T03:34:22.389Z,96502.94
2023-04-05T03:36:51.160Z,96502.09
2023-04-05T03:39:19.704Z,96503.84
2023-04-05T03:41:48.039Z,96499.66
2023-04-05T03:44:16.691Z,96506.34
2023-04-05T03:46:46.801Z,96507.09
2023-04-05T03:49:16.785Z,96510.50
2023-04-05T03:51:45.231Z,96509.69
2023-04-05T03:54:13.767Z,96511.38
2023-04-05T03:56:42.364Z,96512.31
2023-04-05T03:59:10.836Z,96513.16
2023-04-05T04:01:39.686Z,96514.84
2023-04-05T04:04:09.826Z,96480.19
2023-04-05T04:06:38.561Z,96517.38
2023-04-05T04:09:07.393Z,96523.22
2023-04-05T04:11:38.444Z,96514.97
2023-04-05T04:14:07.033Z,96510.84
2023-04-05T04:16:35.851Z,96515.91
2023-04-05T04:19:04.694Z,96519.34
2023-04-05T04:21:36.129Z,96510.19
2023-04-05T04:24:05.235Z,96515.19
2023-04-05T04:26:37.765Z,96511.81
2023-04-05T04:29:06.490Z,96506.00
2023-04-05T04:31:35.165Z,96500.25
2023-04-05T04:34:05.754Z,96505.22
2023-04-05T04:36:37.295Z,96501.81
2023-04-05T04:39:07.688Z,96504.31
2023-04-05T04:41:39.316Z,96512.78
2023-04-05T04:44:07.885Z,96510.31
2023-04-05T04:46:43.130Z,96523.59
2023-04-05T04:49:13.478Z,96508.59
2023-04-05T04:51:43.770Z,96500.28
2023-04-05T04:54:13.386Z,96511.03
2023-04-05T04:56:41.952Z,96508.47
2023-04-05T04:59:10.619Z,96502.66
2023-04-05T05:01:41.206Z,96496.03
2023-04-05T05:04:09.951Z,96504.41
2023-04-05T05:06:38.905Z,96501.81
2023-04-05T05:09:08.766Z,96505.06
2023-04-05T05:11:37.408Z,96504.91
2023-04-05T05:14:05.913Z,96499.00
2023-04-05T05:16:34.678Z,96497.22
2023-04-05T05:19:03.215Z,96502.09
2023-04-05T05:21:32.463Z,96498.63
2023-04-05T05:24:01.310Z,96504.34
2023-04-05T05:26:31.502Z,96503.38
2023-04-05T05:29:02.779Z,96501.63
2023-04-05T05:31:34.139Z,96496.53
2023-04-05T05:34:03.065Z,96503.09
2023-04-05T05:36:31.712Z,96513.78
2023-04-05T05:39:00.319Z,96508.63
2023-04-05T05:41:30.446Z,96511.03
2023-04-05T05:43:58.838Z,96505.03
2023-04-05T05:46:27.820Z,96514.94
2023-04-05T05:48:59.335Z,96510.53
2023-04-05T05:51:28.127Z,96502.88
2023-04-05T05:53:57.513Z,96506.03
2023-04-05T05:56:26.313Z,96504.16
2023-04-05T05:58:56.610Z,96508.94
2023-04-05T06:01:28.525Z,96503.78
2023-04-05T06:03:57.409Z,96509.34
2023-04-05T06:06:26.703Z,96509.19
2023-04-05T06:08:55.309Z,96513.88
2023-04-05T06:11:25.579Z,96497.06
2023-04-05T06:13:56.424Z,96513.25
2023-04-05T06:16:25.178Z,96500.38
2023-04-05T06:18:55.742Z,96498.56
2023-04-05T06:21:24.447Z,96500.06
2023-04-05T06:23:53.175Z,96493.84
2023-04-05T06:26:23.735Z,96497.66
2023-04-05T06:28:52.727Z,96495.47
2023-04-05T06:31:28.193Z,96495.06
2023-04-05T06:33:57.433Z,96494.63
2023-04-05T06:36:27.752Z,96496.78
2023-04-05T06:38:59.488Z,96492.88
2023-04-05T06:41:28.971Z,96481.75
2023-04-05T06:43:57.687Z,96497.69
2023-04-05T06:46:29.217Z,96492.09
2023-04-05T06:48:57.661Z,96496.72
2023-04-05T06:51:27.487Z,96483.59
2023-04-05T06:53:56.564Z,96492.13
2023-04-05T06:56:25.445Z,96490.81
2023-04-05T06:58:55.907Z,96496.97
2023-04-05T07:01:25.303Z,96493.03
2023-04-05T07:03:55.946Z,96500.03
2023-04-05T07:06:25.325Z,96491.25
2023-04-05T07:08:54.306Z,96494.44
2023-04-05T07:11:23.110Z,96488.88
2023-04-05T07:13:51.917Z,96488.41
2023-04-05T07:16:23.877Z,96495.13
2023-04-05T07:18:52.872Z,96493.25
2023-04-05T07:21:23.528Z,96494.19
2023-04-05T07:24:02.452Z,96499.84
2023-04-05T07:26:57.208Z,96497.88
2023-04-05T07:29:26.535Z,96447.25
2023-04-05T07:31:55.288Z,96495.84
2023-04-05T07:34:49.741Z,96494.47
2023-04-05T07:37:19.632Z,96488.66
2023-04-05T07:39:48.271Z,96494.06
2023-04-05T07:42:27.000Z,96494.47
2023-04-05T07:44:55.785Z,96484.06
2023-04-05T07:47:24.646Z,96489.75
2023-04-05T07:49:53.328Z,96490.91
2023-04-05T07:52:23.510Z,96495.97
2023-04-05T07:54:54.711Z,96488.63
2023-04-05T07:57:23.579Z,96475.22
2023-04-05T07:59:52.961Z,96486.31
2023-04-05T08:02:21.665Z,96490.44
2023-04-05T08:04:50.266Z,96498.03
2023-04-05T08:07:21.702Z,96488.63
2023-04-05T08:09:52.079Z,96487.38
2023-04-05T08:12:20.967Z,96494.53
2023-04-05T08:14:49.440Z,96497.91
2023-04-05T08:17:18.560Z,96498.09
2023-04-05T08:19:47.418Z,96496.50
2023-04-05T08:22:16.791Z,96491.16
2023-04-05T08:24:45.252Z,96487.50
2023-04-05T08:27:15.973Z,96483.72
2023-04-05T08:29:44.618Z,96493.53
2023-04-05T08:32:13.610Z,96487.50
2023-04-05T08:34:44.531Z,96484.56
2023-04-05T08:37:14.653Z,96478.88
2023-04-05T08:39:43.215Z,96479.78
2023-04-05T08:42:18.362Z,96477.13
2023-04-05T08:44:47.876Z,96475.03
2023-04-05T08:47:20.869Z,96468.09
2023-04-05T08:49:49.534Z,96462.53
2023-04-05T08:52:18.463Z,96467.75
2023-04-05T08:54:48.039Z,96471.94
2023-04-05T08:57:20.538Z,96466.41
2023-04-05T08:59:49.928Z,96468.41
2023-04-05T09:02:21.229Z,96474.13
2023-04-05T09:04:50.285Z,96476.66
2023-04-05T09:07:19.495Z,96472.94
2023-04-05T09:09:50.668Z,96471.41
2023-04-05T09:12:22.404Z,96462.94
2023-04-05T09:14:51.376Z,96466.00
2023-04-05T09:17:20.568Z,96476.16
2023-04-05T09:19:50.540Z,96461.59
2023-04-05T09:22:19.751Z,96460.94
2023-04-05T09:24:48.953Z,96464.66
2023-04-05T09:27:19.194Z,96464.38
2023-04-05T09:29:50.890Z,96470.63
2023-04-05T09:32:21.556Z,96466.88
2023-04-05T09:34:52.504Z,96464.53
2023-04-05T09:37:22.991Z,96460.44
2023-04-05T09:39:52.751Z,96460.22
2023-04-05T09:42:23.190Z,96458.22
2023-04-05T09:44:54.965Z,96459.22
2023-04-05T09:47:25.703Z,96461.69
2023-04-05T09:49:55.252Z,96459.56
2023-04-05T09:52:25.359Z,96454.81
2023-04-05T09:54:56.263Z,96452.97
2023-04-05T09:57:26.631Z,96444.84
2023-04-05T09:59:57.653Z,96445.19
2023-04-05T10:02:27.571Z,96452.13
2023-04-05T10:04:56.269Z,96437.28
2023-04-05T10:07:25.119Z,96443.91
2023-04-05T10:09:53.926Z,96446.47
2023-04-05T10:12:27.695Z,96444.06
2023-04-05T10:14:58.588Z,96435.72
2023-04-05T10:17:30.571Z,96426.97
2023-04-05T10:20:12.202Z,96436.56
2023-04-05T10:22:46.295Z,96428.31
2023-04-05T10:25:23.071Z,96423.91
2023-04-05T10:27:55.879Z,96422.25
2023-04-05T10:30:37.110Z,96423.13
2023-04-05T10:33:13.564Z,96438.06
2023-04-05T10:35:54.557Z,96420.72
2023-04-05T10:38:26.437Z,96419.88
2023-04-05T10:40:56.722Z,96425.72
2023-04-05T10:43:30.027Z,96425.38
2023-04-05T10:46:01.165Z,96418.22
2023-04-05T10:48:38.140Z,96421.03
2023-04-05T10:51:06.906Z,96420.00
2023-04-05T10:53:36.671Z,96414.28
2023-04-05T10:56:05.914Z,96414.78
2023-04-05T10:58:36.940Z,96420.28
2023-04-05T11:01:08.382Z,96416.72
2023-04-05T11:03:44.503Z,96406.19
2023-04-05T11:06:23.622Z,96399.91
2023-04-05T11:08:55.446Z,96402.38
2023-04-05T11:11:24.794Z,96403.06
2023-04-05T11:13:54.516Z,96396.84
2023-04-05T11:16:26.852Z,96399.50
2023-04-05T11:18:55.586Z,96404.34
2023-04-05T11:21:25.984Z,96396.81
2023-04-05T11:24:15.760Z,96393.59
2023-04-05T11:26:57.756Z,96356.53
2023-04-05T11:29:54.654Z,96394.91
2023-04-05T11:32:25.188Z,96395.81
2023-04-05T11:35:03.841Z,96398.44
2023-04-05T11:37:54.292Z,96383.09
2023-04-05T11:40:27.922Z,96380.75
2023-04-05T11:43:07.886Z,96382.72
2023-04-05T11:45:38.772Z,96384.25
2023-04-05T11:48:10.639Z,96379.34
2023-04-05T11:50:42.202Z,96380.81
2023-04-05T11:53:19.311Z,96377.88
2023-04-05T11:55:52.989Z,96379.72
2023-04-05T11:58:23.664Z,96374.63
2023-04-05T12:01:00.146Z,96372.63
2023-04-05T12:03:32.763Z,96365.28
2023-04-05T12:06:03.426Z,96371.50
2023-04-05T12:08:42.732Z,96369.44
2023-04-05T12:11:12.884Z,96381.41
2023-04-05T12:13:41.921Z,96384.22
2023-04-05T12:16:12.989Z,96380.25
2023-04-05T12:18:44.210Z,96380.63
2023-04-05T12:21:13.426Z,96380.22
2023-04-05T12:23:42.186Z,96373.66
2023-04-05T12:26:11.015Z,96371.75
2023-04-05T12:28:52.671Z,96362.91
2023-04-05T12:31:40.090Z,96365.97
2023-04-05T12:34:14.943Z,96363.16
2023-04-05T12:36:45.939Z,96354.19
2023-04-05T12:39:14.924Z,96356.16
2023-04-05T12:41:43.706Z,96360.81
2023-04-05T12:44:13.893Z,96361.63
2023-04-05T12:46:44.311Z,96353.25
2023-04-05T12:49:17.483Z,96354.34
2023-04-05T12:51:47.244Z,96353.69
2023-04-05T12:54:16.946Z,96359.78
2023-04-05T12:56:53.366Z,96349.84
2023-04-05T12:59:22.559Z,96344.50
2023-04-05T13:01:51.389Z,96338.44
2023-04-05T13:04:23.341Z,96332.50
2023-04-05T13:06:52.264Z,96335.28
2023-04-05T13:09:22.862Z,96325.00
2023-04-05T13:11:52.349Z,96321.44
2023-04-05T13:14:21.452Z,96323.13
2023-04-05T13:16:50.216Z,96331.41
2023-04-05T13:19:21.047Z,96334.38
2023-04-05T13:21:49.922Z,96328.50
2023-04-05T13:24:19.070Z,96322.81
2023-04-05T13:26:50.804Z,96331.47
2023-04-05T13:29:19.526Z,96323.63
2023-04-05T13:31:48.338Z,96332.00
2023-04-05T13:34:36.148Z,96330.06
2023-04-05T13:37:04.918Z,96325.16
2023-04-05T13:39:34.213Z,96329.56
2023-04-05T13:42:02.904Z,96320.88
2023-04-05T13:44:31.607Z,96321.69
2023-04-05T13:47:00.234Z,96318.59
2023-04-05T13:49:31.261Z,96318.50
2023-04-05T13:52:01.137Z,96315.81
2023-04-05T13:54:30.321Z,96311.09
2023-04-05T13:56:59.308Z,96309.00
2023-04-05T13:59:28.096Z,96304.94
2023-04-05T14:01:56.790Z,96301.25
2023-04-05T14:04:25.480Z,96305.13
2023-04-05T14:07:01.316Z,96292.38
2023-04-05T14:09:34.526Z,96301.13
2023-04-05T14:12:07.431Z,96309.81
2023-04-05T14:14:36.747Z,96295.75
2023-04-05T14:17:05.374Z,96305.41
2023-04-05T14:19:34.326Z,96300.34
2023-04-05T14:22:03.328Z,96294.41
2023-04-05T14:24:33.171Z,96288.91
2023-04-05T14:27:02.821Z,96299.66
2023-04-05T14:29:32.370Z,96294.91
2023-04-05T14:32:02.445Z,96292.97
2023-04-05T14:34:31.823Z,96243.75
2023-04-05T14:37:01.076Z,96288.72
2023-04-05T14:39:30.435Z,96287.13
2023-04-05T14:42:01.557Z,96287.31
2023-04-05T14:44:30.405Z,96284.13
2023-04-05T14:46:59.280Z,96288.56
2023-04-05T14:49:27.996Z,96282.78
2023-04-05T14:51:57.361Z,96284.09
2023-04-05T14:54:26.313Z,96277.97
2023-04-05T14:56:55.006Z,96279.00
2023-04-05T14:59:25.950Z,96286.75
2023-04-05T15:01:54.757Z,96289.41
2023-04-05T15:04:23.535Z,96281.81
2023-04-05T15:06:52.430Z,96280.56
2023-04-05T15:09:21.780Z,96279.53
2023-04-05T15:11:50.915Z,96281.00
2023-04-05T15:14:29.031Z,96278.03
2023-04-05T15:17:02.599Z,96275.00
2023-04-05T15:19:31.772Z,96277.38
2023-04-05T15:22:00.681Z,96271.25
2023-04-05T15:24:29.191Z,96271.81
2023-04-05T15:27:02.437Z,96277.97
2023-04-05T15:29:31.281Z,96284.06
2023-04-05T15:32:02.472Z,96278.41
2023-04-05T15:34:32.202Z,96274.59
2023-04-05T15:37:01.194Z,96269.19
2023-04-05T15:39:30.579Z,96271.84
2023-04-05T15:41:59.855Z,96280.78
2023-04-05T15:44:30.193Z,96282.41
2023-04-05T15:46:58.846Z,96284.41
2023-04-05T15:49:29.075Z,96285.59
2023-04-05T15:52:01.154Z,96288.19
2023-04-05T15:54:29.947Z,96286.91
2023-04-05T15:56:58.863Z,96283.59
2023-04-05T15:59:27.634Z,96288.66
2023-04-05T16:01:56.851Z,96285.53
2023-04-05T16:04:28.597Z,96283.13
2023-04-05T16:06:58.792Z,96285.84
2023-04-05T16:09:35.275Z,96288.19
2023-04-05T16:12:03.975Z,96294.56
2023-04-05T16:14:33.048Z,96292.19
2023-04-05T16:17:04.727Z,96287.00
2023-04-05T16:19:33.575Z,96285.44
2023-04-05T16:22:04.121Z,96285.72
2023-04-05T16:24:33.614Z,96284.06
2023-04-05T16:27:02.807Z,96285.00
2023-04-05T16:29:31.989Z,96290.25
2023-04-05T16:32:00.943Z,96286.50
2023-04-05T16:34:29.720Z,96293.47
2023-04-05T16:36:58.502Z,96294.81
2023-04-05T16:39:28.735Z,96297.00
2023-04-05T16:41:57.580Z,96288.94
2023-04-05T16:44:26.807Z,96297.81
2023-04-05T16:46:56.664Z,96292.91
2023-04-05T16:49:25.298Z,96292.19
2023-04-05T16:51:53.909Z,96297.44
2023-04-05T16:54:22.858Z,96302.69
2023-04-05T16:56:53.213Z,96295.25
2023-04-05T16:59:21.848Z,96297.22
2023-04-05T17:01:50.484Z,96293.13
2023-04-05T17:04:19.654Z,96303.53
2023-04-05T17:06:48.568Z,96298.69
2023-04-05T17:09:18.627Z,96301.84
2023-04-05T17:11:48.165Z,96302.25
2023-04-05T17:14:18.661Z,96304.22
2023-04-05T17:16:49.982Z,96309.78
2023-04-05T17:19:18.845Z,96315.97
2023-04-05T17:21:50.974Z,96319.03
2023-04-05T17:24:19.661Z,96320.25
2023-04-05T17:26:48.139Z,96316.31
2023-04-05T17:29:18.559Z,96317.59
2023-04-05T17:31:47.435Z,96316.69
2023-04-05T17:34:17.041Z,96321.13
2023-04-05T17:36:46.747Z,96319.31
2023-04-05T17:39:16.671Z,96320.31
2023-04-05T17:41:47.692Z,96320.91
2023-04-05T17:44:19.264Z,96318.28
2023-04-05T17:46:57.250Z,96326.63
2023-04-05T17:49:33.163Z,96328.88
2023-04-05T17:52:02.170Z,96331.19
2023-04-05T17:54:32.013Z,96331.88
2023-04-05T17:57:00.743Z,96336.53
2023-04-05T17:59:30.990Z,96345.59
2023-04-05T18:02:00.335Z,96342.97
2023-04-05T18:04:29.124Z,96343.56
2023-04-05T18:06:58.298Z,96349.78
2023-04-05T18:09:28.163Z,96356.50
2023-04-05T18:11:57.327Z,96356.94
2023-04-05T18:14:26.037Z,96362.63
2023-04-05T18:16:56.392Z,96362.03
2023-04-05T18:19:25.150Z,96363.81
2023-04-05T18:21:53.749Z,96356.00
2023-04-05T18:24:22.396Z,96367.63
2023-04-05T18:26:51.844Z,96374.94
2023-04-05T18:29:21.928Z,96375.16
2023-04-05T18:31:51.197Z,96370.69
2023-04-05T18:34:21.859Z,96380.13
2023-04-05T18:36:51.396Z,96375.16
2023-04-05T18:39:21.348Z,96382.75
2023-04-05T18:41:52.398Z,96384.66
2023-04-05T18:44:23.500Z,96383.41
2023-04-05T18:46:52.405Z,96391.75
2023-04-05T18:49:22.704Z,96393.28
2023-04-05T18:51:52.040Z,96398.19
2023-04-05T18:54:21.369Z,96392.41
2023-04-05T18:56:50.502Z,96405.19
2023-04-05T18:59:22.437Z,96394.28
2023-04-05T19:01:51.529Z,96400.19
2023-04-05T19:04:22.150Z,96394.53
2023-04-05T19:06:51.422Z,96406.50
2023-04-05T19:09:22.398Z,96403.38
2023-04-05T19:11:51.257Z,96401.03
2023-04-05T19:14:19.988Z,96400.59
2023-04-05T19:16:49.406Z,96403.25
2023-04-05T19:19:19.134Z,96412.38
2023-04-05T19:21:49.178Z,96410.69
2023-04-05T19:24:18.971Z,96414.06
2023-04-05T19:26:48.682Z,96412.38
2023-04-05T19:29:17.791Z,96414.84
2023-04-05T19:31:46.354Z,96410.63
2023-04-05T19:34:19.367Z,96414.13
2023-04-05T19:36:49.529Z,96413.22
2023-04-05T19:39:18.501Z,96369.75
2023-04-05T19:41:47.340Z,96411.56
2023-04-05T19:44:37.109Z,96417.59
2023-04-05T19:47:09.274Z,96410.09
2023-04-05T19:49:42.376Z,96410.22
2023-04-05T19:52:15.492Z,96412.78
2023-04-05T19:54:45.174Z,96409.72
2023-04-05T19:57:19.426Z,96409.81
2023-04-05T19:59:48.297Z,96409.25
2023-04-05T20:02:26.735Z,96407.09
2023-04-05T20:04:56.163Z,96411.47
2023-04-05T20:07:26.997Z,96409.06
2023-04-05T20:09:56.434Z,96412.53
2023-04-05T20:12:25.218Z,96408.41
2023-04-05T20:14:54.150Z,96410.81
2023-04-05T20:17:23.317Z,96405.78
2023-04-05T20:20:01.199Z,96408.22
2023-04-05T20:22:34.906Z,96403.31
2023-04-05T20:25:06.352Z,96405.03
2023-04-05T20:27:34.849Z,96402.53
2023-04-05T20:30:03.610Z,96405.88
2023-04-05T20:32:32.292Z,96395.81
2023-04-05T20:35:01.010Z,96396.81
2023-04-05T20:37:31.142Z,96391.09
2023-04-05T20:39:59.686Z,96396.91
2023-04-05T20:42:28.610Z,96394.25
2023-04-05T20:44:57.396Z,96397.53
2023-04-05T20:47:28.108Z,96404.25
2023-04-05T20:50:00.189Z,96396.75
2023-04-05T20:52:31.223Z,96399.25
2023-04-05T20:55:01.920Z,96400.00
2023-04-05T20:57:31.664Z,96400.09
2023-04-05T21:00:02.400Z,96395.03
2023-04-05T21:02:31.679Z,96395.91
2023-04-05T21:05:00.727Z,96394.25
2023-04-05T21:07:34.418Z,96396.81
2023-04-05T21:10:03.703Z,96392.75
2023-04-05T21:12:32.618Z,96388.91
2023-04-05T21:15:01.623Z,96395.84
2023-04-05T21:17:30.678Z,96395.22
2023-04-05T21:19:59.492Z,96395.41
2023-04-05T21:22:28.233Z,96395.50
2023-04-05T21:24:58.528Z,96397.25
2023-04-05T21:27:27.714Z,96394.00
2023-04-05T21:29:56.615Z,96399.88
2023-04-05T21:32:26.002Z,96389.03
2023-04-05T21:34:54.873Z,96386.56
2023-04-05T21:37:23.457Z,96393.31
2023-04-05T21:39:52.207Z,96389.19
2023-04-05T21:42:23.012Z,96393.34
2023-04-05T21:44:54.566Z,96403.38
2023-04-05T21:47:24.765Z,96390.81
2023-04-05T21:50:04.409Z,96393.31
2023-04-05T21:52:33.046Z,96386.53
2023-04-05T21:55:02.116Z,96388.13
2023-04-05T21:57:33.795Z,96386.44
2023-04-05T22:00:05.998Z,96389.03
2023-04-05T22:02:34.772Z,96395.97
2023-04-05T22:05:04.600Z,96390.81
2023-04-05T22:07:33.859Z,96385.56
2023-04-05T22:10:02.966Z,96392.94
2023-04-05T22:12:33.269Z,96389.34
2023-04-05T22:15:03.026Z,96385.78
2023-04-05T22:17:32.223Z,96384.88
2023-04-05T22:20:02.931Z,96386.38
2023-04-05T22:22:32.973Z,96386.22
2023-04-05T22:25:01.697Z,96384.38
2023-04-05T22:27:30.584Z,96382.59
2023-04-05T22:30:01.687Z,96385.88
2023-04-05T22:32:30.303Z,96381.63
2023-04-05T22:34:59.079Z,96375.03
2023-04-05T22:37:27.966Z,96383.41
2023-04-05T22:39:56.969Z,96385.28
2023-04-05T22:42:25.919Z,96384.47
2023-04-05T22:44:54.727Z,96387.06
2023-04-05T22:47:24.889Z,96386.38
2023-04-05T22:49:53.887Z,96386.50
2023-04-05T22:52:22.695Z,96383.97
2023-04-05T22:54:51.481Z,96383.06
2023-04-05T22:57:20.884Z,96398.13
2023-04-05T22:59:49.953Z,96391.44
2023-04-05T23:02:18.906Z,96384.81
2023-04-05T23:04:48.816Z,96385.72
2023-04-05T23:07:17.512Z,96385.03
2023-04-05T23:09:46.363Z,96381.06
2023-04-05T23:12:18.232Z,96384.00
2023-04-05T23:14:47.365Z,96383.38
2023-04-05T23:17:16.306Z,96386.13
2023-04-05T23:19:45.128Z,96380.38
2023-04-05T23:22:15.471Z,96383.97
2023-04-05T23:24:44.177Z,96384.19
2023-04-05T23:27:12.824Z,96371.13
2023-04-05T23:29:42.189Z,96373.75
2023-04-05T23:32:13.029Z,96367.13
2023-04-05T23:34:42.162Z,96366.34
2023-04-05T23:37:14.448Z,96368.03
2023-04-05T23:39:43.140Z,96361.22
2023-04-05T23:42:11.790Z,96363.69
2023-04-05T23:45:30.393Z,96363.66
2023-04-05T23:47:59.064Z,96360.34
2023-04-05T23:50:27.686Z,96357.88
2023-04-05T23:52:58.227Z,96348.75
2023-04-05T23:55:27.419Z,96352.94
2023-04-05T23:58:00.329Z,96348.00
